createdAt,value
2023-07-18T00:00:54.929Z,6.82
2023-07-18T00:03:59.027Z,8.90
2023-07-18T00:07:02.564Z,8.83
2023-07-18T00:10:05.386Z,9.45
2023-07-18T00:13:08.748Z,9.30
2023-07-18T00:16:11.754Z,9.98
2023-07-18T00:19:15.937Z,7.93
2023-07-18T00:22:18.796Z,8.98
2023-07-18T00:25:22.512Z,6.03
2023-07-18T00:28:25.573Z,6.13
2023-07-18T00:31:28.774Z,6.80
2023-07-18T00:34:37.436Z,5.28
2023-07-18T00:37:41.894Z,8.73
2023-07-18T00:40:49.145Z,6.95
2023-07-18T00:43:55.032Z,6.70
2023-07-18T00:46:57.572Z,6.13
2023-07-18T00:50:00.385Z,7.95
2023-07-18T00:53:03.257Z,8.57
2023-07-18T00:56:06.718Z,7.35
2023-07-18T00:59:11.824Z,8.70
2023-07-18T01:02:14.990Z,6.32
2023-07-18T01:05:19.626Z,8.40
2023-07-18T01:08:22.364Z,7.57
2023-07-18T01:11:24.824Z,6.88
2023-07-18T01:14:27.443Z,7.28
2023-07-18T01:17:31.394Z,7.22
2023-07-18T01:20:34.601Z,5.53
2023-07-18T01:23:38.958Z,8.65
2023-07-18T01:26:41.393Z,7.78
2023-07-18T01:29:45.510Z,9.07
2023-07-18T01:32:50.013Z,9.40
2023-07-18T01:35:53.136Z,8.85
2023-07-18T01:38:56.025Z,8.43
2023-07-18T01:41:58.449Z,11.05
2023-07-18T01:45:04.017Z,8.95
2023-07-18T01:48:07.669Z,8.20
2023-07-18T01:51:10.156Z,10.38
2023-07-18T01:54:12.592Z,10.63
2023-07-18T01:57:15.862Z,10.93
2023-07-18T02:00:21.514Z,10.10
2023-07-18T02:03:24.842Z,11.15
2023-07-18T02:06:28.128Z,8.45
2023-07-18T02:09:30.731Z,9.70
2023-07-18T02:12:33.769Z,11.50
2023-07-18T02:15:37.743Z,7.32
2023-07-18T02:18:40.899Z,8.98
2023-07-18T02:21:43.982Z,6.38
2023-07-18T02:24:49.589Z,7.05
2023-07-18T02:27:52.409Z,10.20
2023-07-18T02:30:56.736Z,9.53
2023-07-18T02:33:59.760Z,5.55
2023-07-18T02:37:06.023Z,6.90
2023-07-18T02:40:13.353Z,7.67
2023-07-18T02:43:16.242Z,9.00
2023-07-18T02:46:19.603Z,9.57
2023-07-18T02:49:22.021Z,8.82
2023-07-18T02:52:25.241Z,10.25
2023-07-18T02:55:31.839Z,11.15
2023-07-18T02:58:34.693Z,10.55
2023-07-18T03:01:37.362Z,11.27
2023-07-18T03:04:40.158Z,12.15
2023-07-18T03:07:43.174Z,9.02
2023-07-18T03:10:50.254Z,9.77
2023-07-18T03:13:52.836Z,9.55
2023-07-18T03:16:56.400Z,7.05
2023-07-18T03:19:59.572Z,8.20
2023-07-18T03:23:05.859Z,11.32
2023-07-18T03:26:10.247Z,10.18
2023-07-18T03:29:13.575Z,11.73
2023-07-18T03:32:16.591Z,7.53
2023-07-18T03:35:19.199Z,10.35
2023-07-18T03:38:21.755Z,11.32
2023-07-18T03:41:24.644Z,8.37
2023-07-18T03:44:27.338Z,10.88
2023-07-18T03:47:31.289Z,8.73
2023-07-18T03:50:37.163Z,12.85
2023-07-18T03:53:41.069Z,7.68
2023-07-18T03:56:43.793Z,11.32
2023-07-18T03:59:46.673Z,11.07
2023-07-18T04:02:50.660Z,7.90
2023-07-18T04:05:53.933Z,12.52
2023-07-18T04:08:56.689Z,10.20
2023-07-18T04:11:59.513Z,8.60
2023-07-18T04:15:02.117Z,13.90
2023-07-18T04:18:04.762Z,10.13
2023-07-18T04:21:08.142Z,12.00
2023-07-18T04:24:12.158Z,11.15
2023-07-18T04:27:16.551Z,10.88
2023-07-18T04:30:19.791Z,11.82
2023-07-18T04:33:22.714Z,11.90
2023-07-18T04:36:26.237Z,12.07
2023-07-18T04:39:29.053Z,11.50
2023-07-18T04:42:31.592Z,8.67
2023-07-18T04:45:34.552Z,9.27
2023-07-18T04:48:38.250Z,8.32
2023-07-18T04:51:41.991Z,11.40
2023-07-18T04:54:44.632Z,8.38
2023-07-18T04:57:47.541Z,10.27
2023-07-18T05:00:50.981Z,7.07
2023-07-18T05:03:57.882Z,8.83
2023-07-18T05:07:01.294Z,8.93
2023-07-18T05:10:04.337Z,9.30
2023-07-18T05:13:07.198Z,10.77
2023-07-18T05:16:10.334Z,10.93
2023-07-18T05:19:13.138Z,8.50
2023-07-18T05:22:15.593Z,8.88
2023-07-18T05:25:18.828Z,6.78
2023-07-18T05:28:22.790Z,8.38
2023-07-18T05:31:29.232Z,8.98
2023-07-18T05:34:34.445Z,9.23
2023-07-18T05:37:37.050Z,9.15
2023-07-18T05:40:39.465Z,7.93
2023-07-18T05:43:42.033Z,8.73
2023-07-18T05:46:45.332Z,11.30
2023-07-18T05:49:47.730Z,7.30
2023-07-18T05:52:50.525Z,6.88
2023-07-18T05:55:53.784Z,9.73
2023-07-18T05:58:56.831Z,8.13
2023-07-18T06:02:00.482Z,7.45
2023-07-18T06:05:03.568Z,6.10
2023-07-18T06:08:06.459Z,5.57
2023-07-18T06:11:09.656Z,4.40
2023-07-18T06:14:12.384Z,4.83
2023-07-18T06:17:15.218Z,21.13
2023-07-18T06:20:18.284Z,6.47
2023-07-18T06:23:21.361Z,4.80
2023-07-18T06:26:24.217Z,4.82
2023-07-18T06:29:28.021Z,7.03
2023-07-18T06:32:32.898Z,6.75
2023-07-18T06:35:36.258Z,4.27
2023-07-18T06:38:39.321Z,4.22
2023-07-18T06:41:42.260Z,4.22
2023-07-18T06:44:45.626Z,4.53
2023-07-18T06:47:48.263Z,6.63
2023-07-18T06:50:54.858Z,6.45
2023-07-18T06:53:58.511Z,5.85
2023-07-18T06:57:01.952Z,4.40
2023-07-18T07:00:07.041Z,4.82
2023-07-18T07:03:09.890Z,4.45
2023-07-18T07:06:14.126Z,6.10
2023-07-18T07:09:17.397Z,4.75
2023-07-18T07:12:34.638Z,6.35
2023-07-18T07:15:38.984Z,4.70
2023-07-18T07:18:41.396Z,4.38
2023-07-18T07:21:44.833Z,7.03
2023-07-18T07:24:48.698Z,5.95
2023-07-18T07:27:55.074Z,4.70
2023-07-18T07:30:57.674Z,4.32
2023-07-18T07:34:00.104Z,4.47
2023-07-18T07:37:02.581Z,4.63
2023-07-18T07:40:08.826Z,5.95
2023-07-18T07:43:12.136Z,5.95
2023-07-18T07:46:15.511Z,5.15
2023-07-18T07:49:19.491Z,4.83
2023-07-18T07:52:25.323Z,4.63
2023-07-18T07:55:29.215Z,5.25
2023-07-18T07:58:31.778Z,4.97
2023-07-18T08:01:34.312Z,4.67
2023-07-18T08:04:38.613Z,6.27
2023-07-18T08:07:43.117Z,5.43
2023-07-18T08:10:46.517Z,6.28
2023-07-18T08:13:49.430Z,5.40
2023-07-18T08:16:52.750Z,5.10
2023-07-18T08:19:55.479Z,4.95
2023-07-18T08:23:00.781Z,6.25
2023-07-18T08:26:04.535Z,4.97
2023-07-18T08:29:07.456Z,5.30
2023-07-18T08:32:10.274Z,9.35
2023-07-18T08:35:12.933Z,5.38
2023-07-18T08:38:16.003Z,5.82
2023-07-18T08:41:22.515Z,7.77
2023-07-18T08:44:25.697Z,6.82
2023-07-18T08:47:28.645Z,5.55
2023-07-18T08:50:32.295Z,7.13
2023-07-18T08:53:36.284Z,5.27
2023-07-18T08:56:41.614Z,5.82
2023-07-18T08:59:44.700Z,5.40
2023-07-18T09:02:50.959Z,4.40
2023-07-18T09:05:53.754Z,6.10
2023-07-18T09:08:56.464Z,6.78
2023-07-18T09:12:05.047Z,7.05
2023-07-18T09:15:08.698Z,4.65
2023-07-18T09:18:13.901Z,4.97
2023-07-18T09:21:17.534Z,4.22
2023-07-18T09:24:20.732Z,4.35
2023-07-18T09:27:24.467Z,5.00
2023-07-18T09:30:35.526Z,4.67
2023-07-18T09:33:40.924Z,4.22
2023-07-18T09:36:56.242Z,4.10
2023-07-18T09:39:58.835Z,4.32
2023-07-18T09:43:01.831Z,5.13
2023-07-18T09:46:08.199Z,4.03
2023-07-18T09:49:14.735Z,4.72
2023-07-18T09:52:24.157Z,4.80
2023-07-18T09:55:31.762Z,4.60
2023-07-18T09:58:39.467Z,4.73
2023-07-18T10:01:42.054Z,4.03
2023-07-18T10:04:46.052Z,5.55
2023-07-18T10:07:49.238Z,4.18
2023-07-18T10:11:05.688Z,4.85
2023-07-18T10:14:08.466Z,4.03
2023-07-18T10:17:11.390Z,4.27
2023-07-18T10:20:25.130Z,4.88
2023-07-18T10:23:44.590Z,4.38
2023-07-18T10:26:52.414Z,4.32
2023-07-18T10:30:10.511Z,5.33
2023-07-18T10:33:15.085Z,4.17
2023-07-18T10:36:26.853Z,5.30
2023-07-18T10:39:50.685Z,4.05
2023-07-18T10:42:53.342Z,4.97
2023-07-18T10:45:56.660Z,5.77
2023-07-18T10:48:59.306Z,4.43
2023-07-18T10:52:04.971Z,5.40
2023-07-18T10:55:08.083Z,5.00
2023-07-18T10:58:15.899Z,6.17
2023-07-18T11:01:19.664Z,5.75
2023-07-18T11:04:26.531Z,4.43
2023-07-18T11:07:34.246Z,4.57
2023-07-18T11:10:37.139Z,6.28
2023-07-18T11:13:40.693Z,6.75
2023-07-18T11:16:43.964Z,5.13
2023-07-18T11:19:48.193Z,5.30
2023-07-18T11:22:52.026Z,5.07
2023-07-18T11:25:54.777Z,4.95
2023-07-18T11:29:00.802Z,4.50
2023-07-18T11:32:04.120Z,4.40
2023-07-18T11:35:12.478Z,6.22
2023-07-18T11:38:18.866Z,3.95
2023-07-18T11:41:40.951Z,5.37
2023-07-18T11:44:45.277Z,4.77
2023-07-18T11:47:51.586Z,4.25
2023-07-18T11:50:54.362Z,5.65
2023-07-18T11:53:56.920Z,6.47
2023-07-18T11:56:59.300Z,6.77
2023-07-18T12:00:02.216Z,5.38
2023-07-18T12:03:04.852Z,5.10
2023-07-18T12:06:08.125Z,4.33
2023-07-18T12:09:12.911Z,6.55
2023-07-18T12:12:15.745Z,4.53
2023-07-18T12:15:18.615Z,6.25
2023-07-18T12:18:22.799Z,4.47
2023-07-18T12:21:25.846Z,5.97
2023-07-18T12:24:28.714Z,3.92
2023-07-18T12:27:31.486Z,4.40
2023-07-18T12:30:36.630Z,5.78
2023-07-18T12:33:39.720Z,4.32
2023-07-18T12:36:42.709Z,5.60
2023-07-18T12:39:46.179Z,7.03
2023-07-18T12:42:49.076Z,4.18
2023-07-18T12:45:51.433Z,4.38
2023-07-18T12:49:03.601Z,6.10
2023-07-18T12:52:09.268Z,4.80
2023-07-18T12:55:12.914Z,5.57
2023-07-18T12:58:16.104Z,4.22
2023-07-18T13:01:18.668Z,4.70
2023-07-18T13:04:21.107Z,4.20
2023-07-18T13:07:26.333Z,5.18
2023-07-18T13:10:30.053Z,4.47
2023-07-18T13:13:32.890Z,6.93
2023-07-18T13:16:37.974Z,5.93
2023-07-18T13:19:41.162Z,4.28
2023-07-18T13:22:43.624Z,5.07
2023-07-18T13:25:46.674Z,3.72
2023-07-18T13:28:49.614Z,4.63
2023-07-18T13:31:56.097Z,4.20
2023-07-18T13:34:59.617Z,4.57
2023-07-18T13:38:03.230Z,4.80
2023-07-18T13:41:09.536Z,6.00
2023-07-18T13:44:15.930Z,4.95
2023-07-18T13:47:18.704Z,4.57
2023-07-18T13:50:31.266Z,7.60
2023-07-18T13:53:34.342Z,4.32
2023-07-18T13:56:39.951Z,4.70
2023-07-18T13:59:45.107Z,5.53
2023-07-18T14:02:51.443Z,5.25
2023-07-18T14:05:56.172Z,4.13
2023-07-18T14:08:58.666Z,6.25
2023-07-18T14:12:02.347Z,5.25
2023-07-18T14:15:05.822Z,5.35
2023-07-18T14:18:11.292Z,4.67
2023-07-18T14:21:15.151Z,6.82
2023-07-18T14:24:19.509Z,4.35
2023-07-18T14:27:23.423Z,6.87
2023-07-18T14:30:26.580Z,5.50
2023-07-18T14:33:29.837Z,4.10
2023-07-18T14:36:33.509Z,4.93
2023-07-18T14:39:39.840Z,5.70
2023-07-18T14:42:44.957Z,5.10
2023-07-18T14:45:48.023Z,6.25
2023-07-18T14:48:50.756Z,5.20
2023-07-18T14:52:01.073Z,4.70
2023-07-18T14:55:04.037Z,5.50
2023-07-18T14:58:08.285Z,4.20
2023-07-18T15:01:11.115Z,5.97
2023-07-18T15:04:15.185Z,4.60
2023-07-18T15:07:17.599Z,6.85
2023-07-18T15:10:20.616Z,4.85
2023-07-18T15:13:23.705Z,5.30
2023-07-18T15:16:27.053Z,6.03
2023-07-18T15:19:30.296Z,6.20
2023-07-18T15:22:33.041Z,4.20
2023-07-18T15:25:36.042Z,5.90
2023-07-18T15:28:38.918Z,5.13
2023-07-18T15:31:42.027Z,4.32
2023-07-18T15:34:44.708Z,4.28
2023-07-18T15:37:47.400Z,4.47
2023-07-18T15:40:50.135Z,5.32
2023-07-18T15:43:53.637Z,4.15
2023-07-18T15:46:59.372Z,5.68
2023-07-18T15:50:02.513Z,4.30
2023-07-18T15:53:04.943Z,6.05
2023-07-18T15:56:07.416Z,6.47
2023-07-18T15:59:10.619Z,6.23
2023-07-18T16:02:15.318Z,7.45
2023-07-18T16:05:19.256Z,4.57
2023-07-18T16:08:23.650Z,4.75
2023-07-18T16:11:27.200Z,6.82
2023-07-18T16:14:30.173Z,5.65
2023-07-18T16:17:32.809Z,5.57
2023-07-18T16:20:35.727Z,4.80
2023-07-18T16:23:38.834Z,3.97
2023-07-18T16:26:41.472Z,5.03
2023-07-18T16:29:45.453Z,4.40
2023-07-18T16:32:48.672Z,6.68
2023-07-18T16:35:52.054Z,3.83
2023-07-18T16:38:54.715Z,7.45
2023-07-18T16:42:06.397Z,5.57
2023-07-18T16:45:16.681Z,5.80
2023-07-18T16:48:20.345Z,6.30
2023-07-18T16:51:22.689Z,7.67
2023-07-18T16:54:25.045Z,5.90
2023-07-18T16:57:27.659Z,5.75
2023-07-18T17:00:31.130Z,4.53
2023-07-18T17:03:34.851Z,5.00
2023-07-18T17:06:37.388Z,7.10
2023-07-18T17:09:39.840Z,4.65
2023-07-18T17:12:45.845Z,7.30
2023-07-18T17:15:52.121Z,3.97
2023-07-18T17:18:55.226Z,5.30
2023-07-18T17:21:58.675Z,4.77
2023-07-18T17:25:01.384Z,5.28
2023-07-18T17:28:04.543Z,5.95
2023-07-18T17:31:07.546Z,5.10
2023-07-18T17:34:10.270Z,4.28
2023-07-18T17:37:12.903Z,4.53
2023-07-18T17:40:15.957Z,6.05
2023-07-18T17:43:18.631Z,5.63
2023-07-18T17:46:21.108Z,5.28
2023-07-18T17:49:23.786Z,13.93
2023-07-18T17:52:26.713Z,7.67
2023-07-18T17:55:31.308Z,5.18
2023-07-18T17:58:33.848Z,5.43
2023-07-18T18:01:38.925Z,6.23
2023-07-18T18:04:41.561Z,5.85
2023-07-18T18:07:44.515Z,4.85
2023-07-18T18:10:48.143Z,6.95
2023-07-18T18:14:00.487Z,4.60
2023-07-18T18:17:04.609Z,7.32
2023-07-18T18:20:09.262Z,5.93
2023-07-18T18:23:20.462Z,4.37
2023-07-18T18:26:31.275Z,4.78
2023-07-18T18:29:34.037Z,5.03
2023-07-18T18:32:37.265Z,6.20
2023-07-18T18:35:46.294Z,6.50
2023-07-18T18:38:52.669Z,7.97
2023-07-18T18:41:56.477Z,4.93
2023-07-18T18:44:59.492Z,5.82
2023-07-18T18:48:02.375Z,4.45
2023-07-18T18:51:06.144Z,6.22
2023-07-18T18:54:17.697Z,6.50
2023-07-18T18:57:20.864Z,5.07
2023-07-18T19:00:23.739Z,5.63
2023-07-18T19:03:26.959Z,3.87
2023-07-18T19:06:29.873Z,4.70
2023-07-18T19:09:32.656Z,6.60
2023-07-18T19:12:35.540Z,3.90
2023-07-18T19:15:38.330Z,7.35
2023-07-18T19:18:40.704Z,5.82
2023-07-18T19:21:43.432Z,5.00
2023-07-18T19:24:47.104Z,5.27
2023-07-18T19:27:49.634Z,5.15
2023-07-18T19:30:52.689Z,7.28
2023-07-18T19:33:56.510Z,7.13
2023-07-18T19:36:59.410Z,5.57
2023-07-18T19:40:05.590Z,5.97
2023-07-18T19:43:08.004Z,5.82
2023-07-18T19:46:10.916Z,6.25
2023-07-18T19:49:14.046Z,4.28
2023-07-18T19:52:16.383Z,6.45
2023-07-18T19:55:18.802Z,5.80
2023-07-18T19:58:21.255Z,5.00
2023-07-18T20:01:25.625Z,4.57
2023-07-18T20:04:28.723Z,4.77
2023-07-18T20:07:32.077Z,4.28
2023-07-18T20:10:34.618Z,6.47
2023-07-18T20:13:37.208Z,4.88
2023-07-18T20:16:40.284Z,4.78
2023-07-18T20:19:45.057Z,3.78
2023-07-18T20:22:47.851Z,6.80
2023-07-18T20:25:50.578Z,6.33
2023-07-18T20:28:53.337Z,5.13
2023-07-18T20:31:56.234Z,4.05
2023-07-18T20:34:59.052Z,3.33
2023-07-18T20:38:01.703Z,6.80
2023-07-18T20:41:09.482Z,4.50
2023-07-18T20:44:18.394Z,3.50
2023-07-18T20:47:21.975Z,5.03
2023-07-18T20:50:24.646Z,3.70
2023-07-18T20:53:29.629Z,6.05
2023-07-18T20:56:32.173Z,7.97
2023-07-18T20:59:34.524Z,4.22
2023-07-18T21:02:38.637Z,4.75
2023-07-18T21:05:41.333Z,6.43
2023-07-18T21:08:44.503Z,5.13
2023-07-18T21:11:46.921Z,4.60
2023-07-18T21:14:49.454Z,4.30
2023-07-18T21:17:52.144Z,5.32
2023-07-18T21:20:54.660Z,3.50
2023-07-18T21:23:58.704Z,4.40
2023-07-18T21:27:01.890Z,5.03
2023-07-18T21:30:08.475Z,5.32
2023-07-18T21:33:11.978Z,3.78
2023-07-18T21:36:16.870Z,4.93
2023-07-18T21:39:19.349Z,5.22
2023-07-18T21:42:22.024Z,4.75
2023-07-18T21:45:24.952Z,5.88
2023-07-18T21:48:28.098Z,5.57
2023-07-18T21:51:30.626Z,4.18
2023-07-18T21:54:33.030Z,3.20
2023-07-18T21:57:35.741Z,4.67
2023-07-18T22:00:38.788Z,3.67
2023-07-18T22:03:44.814Z,6.25
2023-07-18T22:06:48.026Z,5.23
2023-07-18T22:09:52.360Z,3.30
2023-07-18T22:12:55.186Z,6.78
2023-07-18T22:15:57.718Z,4.57
2023-07-18T22:19:03.467Z,5.78
2023-07-18T22:22:06.688Z,5.10
2023-07-18T22:25:09.848Z,5.80
2023-07-18T22:28:12.849Z,3.67
2023-07-18T22:31:16.531Z,2.75
2023-07-18T22:34:19.124Z,2.97
2023-07-18T22:37:22.211Z,5.17
2023-07-18T22:40:24.817Z,7.05
2023-07-18T22:43:29.180Z,5.63
2023-07-18T22:46:32.472Z,6.28
2023-07-18T22:49:34.897Z,5.93
2023-07-18T22:52:38.169Z,6.00
2023-07-18T22:55:40.776Z,5.43
2023-07-18T22:58:45.144Z,4.77
2023-07-18T23:01:48.217Z,7.72
2023-07-18T23:04:51.252Z,6.38
2023-07-18T23:07:54.473Z,7.77
2023-07-18T23:10:57.525Z,5.97
2023-07-18T23:14:00.889Z,5.95
2023-07-18T23:17:03.762Z,3.30
2023-07-18T23:20:07.990Z,5.28
2023-07-18T23:23:10.448Z,4.03
2023-07-18T23:26:14.924Z,4.47
2023-07-18T23:29:20.892Z,4.90
2023-07-18T23:32:23.907Z,4.78
2023-07-18T23:35:26.979Z,6.95
2023-07-18T23:38:29.518Z,4.80
2023-07-18T23:41:32.092Z,5.32
2023-07-18T23:44:40.522Z,4.53
2023-07-18T23:47:43.258Z,6.22
2023-07-18T23:50:45.621Z,4.45
2023-07-18T23:53:49.269Z,4.63
2023-07-18T23:56:51.879Z,5.28
2023-07-18T23:59:54.260Z,5.90
